Terminal Aerodrome Forecast
Issued by NWS Sterling, VA

Current Version | Previous Version | Graphics & Text | Print | Product List | Glossary On
Versions: 1 2 3 4 5 6 7 8 9 10 11 12 13 14 15 16 17 18 19 20 21 22 23 24 25 26 27 28 29 30 31 32 33 34 35 36
000
FTUS41 KLWX 301632 AAB
TAFIAD
TAF AMD
KIAD 301632Z 3017/3118 22008KT P6SM VCTS SCT030CB BKN080
      TEMPO 3017/3021 28010G20KT 4SM -TSRA BKN040CB
     FM302200 VRB05KT P6SM SCT060
     FM310200 32006KT P6SM FEW250=

USA.gov is the U.S. government's official web portal to all federal, state and local government web resources and services.